createdAt,value
2022-10-09T00:00:53.067Z,1020.51
2022-10-09T00:01:53.077Z,1020.46
2022-10-09T00:02:52.981Z,1020.44
2022-10-09T00:03:52.951Z,1020.41
2022-10-09T00:04:52.937Z,1020.49
2022-10-09T00:05:52.853Z,1020.45
2022-10-09T00:06:52.811Z,1020.48
2022-10-09T00:07:52.767Z,1020.50
2022-10-09T00:08:52.738Z,1020.52
2022-10-09T00:09:52.682Z,1020.52
2022-10-09T00:10:52.642Z,1020.51
2022-10-09T00:11:52.609Z,1020.52
2022-10-09T00:12:52.555Z,1020.57
2022-10-09T00:13:52.509Z,1020.56
2022-10-09T00:14:52.466Z,1020.62
2022-10-09T00:15:52.434Z,1020.91
2022-10-09T00:16:52.445Z,1020.59
2022-10-09T00:17:52.342Z,1020.90
2022-10-09T00:18:52.304Z,1020.88
2022-10-09T00:19:52.252Z,1020.58
2022-10-09T00:20:52.209Z,1020.50
2022-10-09T00:21:52.165Z,1020.53
2022-10-09T00:22:52.133Z,1020.66
2022-10-09T00:23:52.091Z,1020.57
2022-10-09T00:24:52.034Z,1020.77
2022-10-09T00:25:51.997Z,1020.54
2022-10-09T00:26:51.949Z,1020.55
2022-10-09T00:27:51.907Z,1020.85
2022-10-09T00:28:51.912Z,1020.49
2022-10-09T00:29:51.850Z,1020.85
2022-10-09T00:30:51.816Z,1020.84
2022-10-09T00:31:51.735Z,1020.51
2022-10-09T00:32:51.691Z,1020.51
2022-10-09T00:33:51.648Z,1020.56
2022-10-09T00:34:51.605Z,1020.50
2022-10-09T00:35:51.573Z,1020.50
2022-10-09T00:36:51.519Z,1020.47
2022-10-09T00:37:51.477Z,1020.49
2022-10-09T00:38:51.434Z,1020.48
2022-10-09T00:39:51.391Z,1020.43
2022-10-09T00:40:51.346Z,1020.45
2022-10-09T00:41:51.318Z,1020.46
2022-10-09T00:42:51.733Z,1020.46
2022-10-09T00:43:51.219Z,1020.44
2022-10-09T00:44:51.176Z,1020.46
2022-10-09T00:45:51.157Z,1020.45
2022-10-09T00:46:51.089Z,1020.46
2022-10-09T00:47:51.055Z,1020.47
2022-10-09T00:48:51.002Z,1020.45
2022-10-09T00:49:50.960Z,1020.48
2022-10-09T00:50:50.917Z,1020.48
2022-10-09T00:51:50.876Z,1020.43
2022-10-09T00:52:51.295Z,1020.42
2022-10-09T00:53:50.800Z,1020.40
2022-10-09T00:54:50.743Z,1020.42
2022-10-09T00:55:50.700Z,1020.42
2022-10-09T00:56:50.656Z,1020.43
2022-10-09T00:57:50.618Z,1020.42
2022-10-09T00:58:50.574Z,1020.41
2022-10-09T00:59:50.543Z,1020.43
2022-10-09T01:00:50.487Z,1020.44
2022-10-09T01:01:50.522Z,1020.55
2022-10-09T01:02:50.727Z,1020.46
2022-10-09T01:03:50.356Z,1020.43
2022-10-09T01:04:50.326Z,1020.44
2022-10-09T01:05:50.272Z,1020.43
2022-10-09T01:06:50.226Z,1020.43
2022-10-09T01:07:50.183Z,1020.43
2022-10-09T01:08:50.139Z,1020.46
2022-10-09T01:09:50.097Z,1020.54
2022-10-09T01:10:50.065Z,1020.50
2022-10-09T01:11:50.010Z,1020.51
2022-10-09T01:12:50.241Z,1020.47
2022-10-09T01:13:49.931Z,1020.51
2022-10-09T01:14:49.880Z,1020.50
2022-10-09T01:15:49.908Z,1020.49
2022-10-09T01:16:49.809Z,1020.49
2022-10-09T01:17:49.755Z,1020.51
2022-10-09T01:18:49.712Z,1020.49
2022-10-09T01:19:49.665Z,1020.49
2022-10-09T01:20:49.628Z,1020.45
2022-10-09T01:21:49.579Z,1020.43
2022-10-09T01:22:49.813Z,1020.45
2022-10-09T01:23:49.491Z,1020.47
2022-10-09T01:24:49.461Z,1020.49
2022-10-09T01:25:49.405Z,1020.46
2022-10-09T01:26:49.362Z,1020.43
2022-10-09T01:27:49.332Z,1020.41
2022-10-09T01:28:49.276Z,1020.42
2022-10-09T01:29:49.234Z,1020.39
2022-10-09T01:30:49.245Z,1020.38
2022-10-09T01:31:49.145Z,1020.36
2022-10-09T01:32:49.392Z,1020.36
2022-10-09T01:33:49.086Z,1020.36
2022-10-09T01:34:49.020Z,1020.38
2022-10-09T01:35:48.976Z,1020.36
2022-10-09T01:36:48.935Z,1020.36
2022-10-09T01:37:48.886Z,1020.41
2022-10-09T01:38:48.846Z,1020.38
2022-10-09T01:39:48.810Z,1020.39
2022-10-09T01:40:48.758Z,1020.37
2022-10-09T01:41:48.715Z,1020.36
2022-10-09T01:42:48.947Z,1020.36
2022-10-09T01:43:48.633Z,1020.38
2022-10-09T01:44:48.585Z,1020.40
2022-10-09T01:45:48.551Z,1020.35
2022-10-09T01:46:48.502Z,1020.36
2022-10-09T01:47:48.454Z,1020.37
2022-10-09T01:48:48.411Z,1020.34
2022-10-09T01:49:48.371Z,1020.31
2022-10-09T01:50:48.325Z,1020.33
2022-10-09T01:51:48.291Z,1020.34
2022-10-09T01:52:48.547Z,1020.66
2022-10-09T01:53:48.202Z,1020.32
2022-10-09T01:54:48.153Z,1020.30
2022-10-09T01:55:48.106Z,1020.26
2022-10-09T01:56:48.066Z,1020.25
2022-10-09T01:57:48.033Z,1020.28
2022-10-09T01:58:47.999Z,1020.24
2022-10-09T01:59:47.935Z,1020.21
2022-10-09T02:00:47.912Z,1020.21
2022-10-09T02:01:47.924Z,1020.19
2022-10-09T02:02:48.241Z,1020.18
2022-10-09T02:03:47.773Z,1020.17
2022-10-09T02:04:47.733Z,1020.18
2022-10-09T02:05:47.681Z,1020.17
2022-10-09T02:06:47.632Z,1020.14
2022-10-09T02:07:47.589Z,1020.14
2022-10-09T02:08:47.549Z,1020.13
2022-10-09T02:09:47.517Z,1020.13
2022-10-09T02:10:47.459Z,1020.09
2022-10-09T02:11:47.413Z,1020.08
2022-10-09T02:12:47.599Z,1020.09
2022-10-09T02:13:47.329Z,1020.05
2022-10-09T02:14:47.287Z,1020.09
2022-10-09T02:15:47.329Z,1020.09
2022-10-09T02:16:47.199Z,1020.08
2022-10-09T02:17:47.155Z,1020.05
2022-10-09T02:18:47.122Z,1020.00
2022-10-09T02:19:47.067Z,1020.03
2022-10-09T02:20:47.027Z,1019.93
2022-10-09T02:21:48.652Z,1019.97
2022-10-09T02:22:47.205Z,1019.93
2022-10-09T02:23:46.894Z,1019.95
2022-10-09T02:24:46.855Z,1019.97
2022-10-09T02:25:46.811Z,1019.95
2022-10-09T02:26:46.767Z,1019.90
2022-10-09T02:27:46.734Z,1019.96
2022-10-09T02:28:46.702Z,1019.95
2022-10-09T02:29:46.637Z,1019.99
2022-10-09T02:30:46.659Z,1019.96
2022-10-09T02:31:46.548Z,1019.97
2022-10-09T02:32:46.888Z,1019.99
2022-10-09T02:33:46.462Z,1019.99
2022-10-09T02:34:46.427Z,1020.00
2022-10-09T02:35:46.373Z,1019.98
2022-10-09T02:36:46.338Z,1019.98
2022-10-09T02:37:46.287Z,1019.97
2022-10-09T02:38:46.270Z,1019.98
2022-10-09T02:39:46.203Z,1019.99
2022-10-09T02:40:46.206Z,1019.98
2022-10-09T02:41:46.113Z,1019.98
2022-10-09T02:42:46.240Z,1019.95
2022-10-09T02:43:46.025Z,1019.94
2022-10-09T02:44:45.996Z,1019.97
2022-10-09T02:45:45.940Z,1019.93
2022-10-09T02:46:45.960Z,1019.97
2022-10-09T02:47:45.866Z,1019.94
2022-10-09T02:48:45.810Z,1019.98
2022-10-09T02:49:45.766Z,1019.99
2022-10-09T02:50:45.722Z,1020.00
2022-10-09T02:51:45.679Z,1020.00
2022-10-09T02:52:45.812Z,1020.03
2022-10-09T02:53:45.611Z,1020.01
2022-10-09T02:54:56.782Z,1020.01
2022-10-09T02:55:45.505Z,1019.98
2022-10-09T02:56:45.464Z,1020.00
2022-10-09T02:57:45.417Z,1019.99
2022-10-09T02:58:45.375Z,1020.01
2022-10-09T02:59:45.343Z,1019.99
2022-10-09T03:00:45.288Z,1020.02
2022-10-09T03:01:45.358Z,1019.99
2022-10-09T03:02:45.398Z,1019.98
2022-10-09T03:03:45.159Z,1019.95
2022-10-09T03:04:45.126Z,1019.97
2022-10-09T03:05:45.084Z,1019.98
2022-10-09T03:06:45.024Z,1019.95
2022-10-09T03:07:44.982Z,1020.31
2022-10-09T03:08:44.939Z,1019.99
2022-10-09T03:09:44.896Z,1019.96
2022-10-09T03:10:44.854Z,1019.96
2022-10-09T03:11:44.819Z,1019.95
2022-10-09T03:12:44.764Z,1019.95
2022-10-09T03:13:44.720Z,1019.97
2022-10-09T03:14:44.678Z,1019.94
2022-10-09T03:15:44.688Z,1019.96
2022-10-09T03:16:44.593Z,1019.96
2022-10-09T03:17:44.558Z,1019.95
2022-10-09T03:18:44.509Z,1019.93
2022-10-09T03:19:44.460Z,1019.96
2022-10-09T03:20:44.417Z,1019.92
2022-10-09T03:21:44.374Z,1019.94
2022-10-09T03:22:44.340Z,1019.94
2022-10-09T03:23:44.304Z,1019.90
2022-10-09T03:24:44.254Z,1019.88
2022-10-09T03:25:44.199Z,1019.93
2022-10-09T03:26:44.157Z,1019.92
2022-10-09T03:27:44.110Z,1019.96
2022-10-09T03:28:44.123Z,1019.97
2022-10-09T03:29:44.025Z,1020.09
2022-10-09T03:30:43.981Z,1019.98
2022-10-09T03:31:52.566Z,1019.93
2022-10-09T03:32:43.915Z,1019.94
2022-10-09T03:33:43.850Z,1019.96
2022-10-09T03:34:43.818Z,1019.93
2022-10-09T03:35:43.762Z,1019.94
2022-10-09T03:36:43.719Z,1020.12
2022-10-09T03:37:43.679Z,1019.92
2022-10-09T03:38:43.640Z,1019.94
2022-10-09T03:39:43.611Z,1019.88
2022-10-09T03:40:43.553Z,1019.86
2022-10-09T03:41:43.508Z,1019.84
2022-10-09T03:42:43.461Z,1019.87
2022-10-09T03:43:43.414Z,1019.86
2022-10-09T03:44:43.380Z,1019.87
2022-10-09T03:45:43.337Z,1019.85
2022-10-09T03:46:44.267Z,1019.85
2022-10-09T03:47:43.376Z,1019.85
2022-10-09T03:48:43.273Z,1019.83
2022-10-09T03:49:43.150Z,1019.83
2022-10-09T03:50:43.169Z,1019.79
2022-10-09T03:51:43.076Z,1019.78
2022-10-09T03:52:43.038Z,1019.76
2022-10-09T03:53:43.007Z,1019.82
2022-10-09T03:54:42.937Z,1019.77
2022-10-09T03:55:42.897Z,1019.79
2022-10-09T03:56:42.847Z,1019.74
2022-10-09T03:57:42.815Z,1019.74
2022-10-09T03:58:42.761Z,1019.71
2022-10-09T03:59:42.823Z,1019.77
2022-10-09T04:00:42.693Z,1019.78
2022-10-09T04:01:42.700Z,1019.78
2022-10-09T04:02:42.619Z,1019.82
2022-10-09T04:03:42.549Z,1019.80
2022-10-09T04:04:42.498Z,1019.84
2022-10-09T04:05:42.454Z,1019.85
2022-10-09T04:06:42.415Z,1019.83
2022-10-09T04:07:42.366Z,1019.83
2022-10-09T04:08:42.348Z,1019.81
2022-10-09T04:09:42.277Z,1019.84
2022-10-09T04:10:42.236Z,1019.89
2022-10-09T04:11:42.191Z,1019.90
2022-10-09T04:12:42.148Z,1019.88
2022-10-09T04:13:42.104Z,1019.87
2022-10-09T04:14:42.073Z,1019.92
2022-10-09T04:15:42.018Z,1019.90
2022-10-09T04:16:42.047Z,1019.88
2022-10-09T04:17:41.928Z,1019.90
2022-10-09T04:18:41.893Z,1019.93
2022-10-09T04:19:41.843Z,1020.23
2022-10-09T04:20:41.813Z,1020.22
2022-10-09T04:21:41.767Z,1019.87
2022-10-09T04:22:41.718Z,1019.89
2022-10-09T04:23:41.669Z,1019.99
2022-10-09T04:24:41.625Z,1020.11
2022-10-09T04:25:41.591Z,1019.89
2022-10-09T04:26:41.540Z,1019.88
2022-10-09T04:27:41.506Z,1019.87
2022-10-09T04:28:41.560Z,1019.98
2022-10-09T04:29:41.407Z,1019.88
2022-10-09T04:30:41.366Z,1019.95
2022-10-09T04:31:41.393Z,1019.80
2022-10-09T04:32:41.279Z,1019.84
2022-10-09T04:33:41.244Z,1019.81
2022-10-09T04:34:41.190Z,1020.04
2022-10-09T04:35:41.145Z,1020.01
2022-10-09T04:36:41.113Z,1020.15
2022-10-09T04:37:41.059Z,1020.02
2022-10-09T04:38:41.016Z,1020.08
2022-10-09T04:39:40.986Z,1019.76
2022-10-09T04:40:40.931Z,1019.78
2022-10-09T04:41:40.886Z,1019.80
2022-10-09T04:42:40.842Z,1019.72
2022-10-09T04:43:40.803Z,1019.73
2022-10-09T04:44:40.755Z,1019.72
2022-10-09T04:45:40.944Z,1019.69
2022-10-09T04:46:40.671Z,1019.71
2022-10-09T04:47:40.624Z,1019.67
2022-10-09T04:48:40.584Z,1019.67
2022-10-09T04:49:40.537Z,1019.69
2022-10-09T04:50:40.493Z,1019.65
2022-10-09T04:51:40.467Z,1019.65
2022-10-09T04:52:40.405Z,1019.65
2022-10-09T04:53:40.365Z,1019.62
2022-10-09T04:54:40.333Z,1019.62
2022-10-09T04:55:40.275Z,1019.65
2022-10-09T04:56:40.259Z,1019.62
2022-10-09T04:57:40.190Z,1019.60
2022-10-09T04:58:40.156Z,1019.60
2022-10-09T04:59:40.102Z,1019.62
2022-10-09T05:00:40.146Z,1019.58
2022-10-09T05:01:40.133Z,1019.89
2022-10-09T05:02:39.983Z,1019.63
2022-10-09T05:03:39.930Z,1019.59
2022-10-09T05:04:39.885Z,1019.62
2022-10-09T05:05:39.840Z,1019.57
2022-10-09T05:06:39.800Z,1019.54
2022-10-09T05:07:39.752Z,1019.57
2022-10-09T05:08:39.724Z,1019.54
2022-10-09T05:09:39.666Z,1019.54
2022-10-09T05:10:39.625Z,1019.56
2022-10-09T05:11:42.670Z,1019.54
2022-10-09T05:12:39.540Z,1019.49
2022-10-09T05:13:39.490Z,1019.50
2022-10-09T05:14:39.460Z,1019.51
2022-10-09T05:15:39.408Z,1019.51
2022-10-09T05:17:08.433Z,1019.54
2022-10-09T05:17:39.351Z,1019.52
2022-10-09T05:18:39.275Z,1019.52
2022-10-09T05:19:39.246Z,1019.51
2022-10-09T05:20:39.197Z,1019.46
2022-10-09T05:21:39.154Z,1019.48
2022-10-09T05:22:39.098Z,1019.48
2022-10-09T05:23:39.054Z,1019.51
2022-10-09T05:24:39.016Z,1019.56
2022-10-09T05:25:38.969Z,1019.52
2022-10-09T05:26:38.923Z,1019.52
2022-10-09T05:27:38.890Z,1019.54
2022-10-09T05:28:38.904Z,1019.53
2022-10-09T05:29:38.795Z,1019.54
2022-10-09T05:30:38.753Z,1019.53
2022-10-09T05:31:38.762Z,1019.54
2022-10-09T05:32:38.663Z,1019.53
2022-10-09T05:33:38.632Z,1019.49
2022-10-09T05:34:38.577Z,1019.52
2022-10-09T05:35:38.540Z,1019.56
2022-10-09T05:36:38.490Z,1019.51
2022-10-09T05:37:38.446Z,1019.54
2022-10-09T05:38:38.399Z,1019.51
2022-10-09T05:39:38.378Z,1019.51
2022-10-09T05:40:38.313Z,1019.52
2022-10-09T05:41:38.280Z,1019.49
2022-10-09T05:42:38.227Z,1019.52
2022-10-09T05:43:38.182Z,1019.55
2022-10-09T05:44:38.138Z,1019.53
2022-10-09T05:45:38.164Z,1019.57
2022-10-09T05:46:38.051Z,1019.54
2022-10-09T05:47:38.007Z,1019.50
2022-10-09T05:48:37.963Z,1019.49
2022-10-09T05:49:37.922Z,1019.49
2022-10-09T05:50:37.876Z,1019.48
2022-10-09T05:51:37.861Z,1019.50
2022-10-09T05:52:37.789Z,1019.50
2022-10-09T05:53:37.746Z,1019.49
2022-10-09T05:54:37.706Z,1019.48
2022-10-09T05:55:37.658Z,1019.47
2022-10-09T05:56:37.626Z,1019.46
2022-10-09T05:57:37.575Z,1019.44
2022-10-09T05:58:37.526Z,1019.43
2022-10-09T05:59:37.485Z,1019.43
2022-10-09T06:00:37.439Z,1019.47
2022-10-09T06:01:37.582Z,1019.46
2022-10-09T06:02:37.452Z,1019.49
2022-10-09T06:03:37.310Z,1019.47
2022-10-09T06:04:37.270Z,1019.52
2022-10-09T06:05:37.222Z,1019.45
2022-10-09T06:06:37.178Z,1019.50
2022-10-09T06:07:37.157Z,1019.57
2022-10-09T06:08:37.093Z,1019.54
2022-10-09T06:09:37.046Z,1019.59
2022-10-09T06:10:37.015Z,1019.57
2022-10-09T06:11:36.959Z,1019.56
2022-10-09T06:12:36.915Z,1019.60
2022-10-09T06:13:36.877Z,1019.57
2022-10-09T06:14:36.833Z,1019.58
2022-10-09T06:15:36.787Z,1019.51
2022-10-09T06:16:36.818Z,1019.54
2022-10-09T06:17:36.699Z,1019.60
2022-10-09T06:18:36.673Z,1019.64
2022-10-09T06:19:36.623Z,1019.66
2022-10-09T06:20:36.576Z,1019.61
2022-10-09T06:21:36.527Z,1019.68
2022-10-09T06:22:36.488Z,1019.94
2022-10-09T06:23:36.438Z,1019.96
2022-10-09T06:24:36.405Z,1019.64
2022-10-09T06:25:37.329Z,1020.10
2022-10-09T06:26:36.308Z,1019.82
2022-10-09T06:27:36.288Z,1019.76
2022-10-09T06:28:36.273Z,1019.78
2022-10-09T06:29:36.192Z,1020.15
2022-10-09T06:30:38.683Z,1019.78
2022-10-09T06:31:36.094Z,1019.81
2022-10-09T06:32:36.051Z,1019.81
2022-10-09T06:33:36.012Z,1020.14
2022-10-09T06:34:35.978Z,1019.86
2022-10-09T06:35:35.925Z,1019.85
2022-10-09T06:36:35.888Z,1019.91
2022-10-09T06:37:35.841Z,1019.92
2022-10-09T06:38:35.796Z,1020.27
2022-10-09T06:39:35.776Z,1020.26
2022-10-09T06:40:35.824Z,1020.05
2022-10-09T06:41:35.680Z,1020.00
2022-10-09T06:42:35.631Z,1020.05
2022-10-09T06:43:35.605Z,1019.90
2022-10-09T06:44:35.553Z,1019.92
2022-10-09T06:45:35.512Z,1019.97
2022-10-09T06:46:35.534Z,1019.92
2022-10-09T06:47:35.432Z,1019.97
2022-10-09T06:48:35.388Z,1019.96
2022-10-09T06:49:35.353Z,1019.96
2022-10-09T06:50:35.315Z,1019.97
2022-10-09T06:51:35.269Z,1019.97
2022-10-09T06:52:35.240Z,1020.02
2022-10-09T06:53:35.190Z,1020.01
2022-10-09T06:54:35.149Z,1020.11
2022-10-09T06:55:35.111Z,1020.01
2022-10-09T06:56:35.070Z,1019.97
2022-10-09T06:57:35.033Z,1020.01
2022-10-09T06:58:35.009Z,1019.96
2022-10-09T06:59:34.966Z,1019.96
2022-10-09T07:00:34.911Z,1019.99
2022-10-09T07:01:34.941Z,1019.98
2022-10-09T07:02:34.887Z,1020.12
2022-10-09T07:03:34.800Z,1020.03
2022-10-09T07:04:34.756Z,1020.08
2022-10-09T07:05:34.735Z,1020.06
2022-10-09T07:06:34.688Z,1020.10
2022-10-09T07:07:34.652Z,1020.12
2022-10-09T07:08:34.605Z,1020.18
2022-10-09T07:09:34.565Z,1020.14
2022-10-09T07:10:34.531Z,1020.08
2022-10-09T07:11:34.500Z,1020.10
2022-10-09T07:12:34.450Z,1020.14
2022-10-09T07:13:34.412Z,1020.49
2022-10-09T07:14:34.374Z,1020.48
2022-10-09T07:15:34.422Z,1020.52
2022-10-09T07:16:34.307Z,1020.15
2022-10-09T07:17:34.262Z,1020.22
2022-10-09T07:18:34.254Z,1020.27
2022-10-09T07:19:34.189Z,1020.27
2022-10-09T07:20:34.150Z,1020.21
2022-10-09T07:21:34.122Z,1020.60
2022-10-09T07:22:34.073Z,1020.63
2022-10-09T07:23:34.039Z,1020.28
2022-10-09T07:24:33.998Z,1020.61
2022-10-09T07:25:33.963Z,1020.36
2022-10-09T07:26:33.926Z,1020.53
2022-10-09T07:27:33.904Z,1020.26
2022-10-09T07:28:33.927Z,1020.29
2022-10-09T07:29:33.817Z,1020.32
2022-10-09T07:30:33.807Z,1020.32
2022-10-09T07:31:33.742Z,1020.34
2022-10-09T07:32:33.702Z,1020.71
2022-10-09T07:33:33.679Z,1020.72
2022-10-09T07:34:33.640Z,1020.39
2022-10-09T07:35:33.594Z,1020.77
2022-10-09T07:36:33.571Z,1020.46
2022-10-09T07:37:33.524Z,1020.53
2022-10-09T07:38:33.487Z,1020.67
2022-10-09T07:39:33.449Z,1020.75
2022-10-09T07:40:33.415Z,1020.41
2022-10-09T07:41:33.378Z,1020.41
2022-10-09T07:42:33.360Z,1020.39
2022-10-09T07:43:33.305Z,1020.39
2022-10-09T07:44:33.268Z,1020.42
2022-10-09T07:45:33.236Z,1020.45
2022-10-09T07:46:34.209Z,1020.80
2022-10-09T07:47:33.162Z,1020.84
2022-10-09T07:48:33.150Z,1020.46
2022-10-09T07:49:33.092Z,1020.45
2022-10-09T07:50:33.055Z,1020.78
2022-10-09T07:51:33.019Z,1020.44
2022-10-09T07:52:32.984Z,1020.46
2022-10-09T07:53:35.950Z,1020.54
2022-10-09T07:54:32.926Z,1020.47
2022-10-09T07:55:32.879Z,1020.45
2022-10-09T07:56:32.855Z,1020.80
2022-10-09T07:57:32.877Z,1020.57
2022-10-09T07:58:32.778Z,1020.43
2022-10-09T07:59:32.750Z,1020.44
2022-10-09T08:00:32.718Z,1020.65
2022-10-09T08:01:32.746Z,1020.44
2022-10-09T08:02:32.665Z,1020.37
2022-10-09T08:03:32.601Z,1020.70
2022-10-09T08:04:32.565Z,1020.37
2022-10-09T08:05:32.529Z,1020.41
2022-10-09T08:06:32.508Z,1020.38
2022-10-09T08:07:34.934Z,1020.40
2022-10-09T08:08:32.427Z,1020.36
2022-10-09T08:09:32.408Z,1020.41
2022-10-09T08:10:32.355Z,1020.40
2022-10-09T08:11:32.322Z,1020.74
2022-10-09T08:12:32.287Z,1020.76
2022-10-09T08:13:32.255Z,1020.38
2022-10-09T08:14:32.228Z,1020.47
2022-10-09T08:15:32.242Z,1020.71
2022-10-09T08:16:32.152Z,1020.44
2022-10-09T08:17:32.115Z,1020.37
2022-10-09T08:18:32.081Z,1020.36
2022-10-09T08:19:32.049Z,1020.39
2022-10-09T08:20:32.022Z,1020.39
2022-10-09T08:21:31.989Z,1020.45
2022-10-09T08:22:31.943Z,1020.45
2022-10-09T08:23:31.910Z,1020.45
2022-10-09T08:24:31.893Z,1020.79
2022-10-09T08:25:31.842Z,1020.54
2022-10-09T08:26:31.822Z,1020.61
2022-10-09T08:27:31.774Z,1020.65
2022-10-09T08:28:31.777Z,1020.65
2022-10-09T08:29:33.108Z,1020.52
2022-10-09T08:30:31.677Z,1020.46
2022-10-09T08:31:31.880Z,1020.78
2022-10-09T08:32:31.606Z,1020.49
2022-10-09T08:33:31.584Z,1020.48
2022-10-09T08:34:31.540Z,1020.69
2022-10-09T08:35:34.593Z,1020.81
2022-10-09T08:36:31.480Z,1020.79
2022-10-09T08:37:31.435Z,1020.84
2022-10-09T08:38:46.516Z,1020.76
2022-10-09T08:39:31.369Z,1020.42
2022-10-09T08:40:31.348Z,1020.41
2022-10-09T08:41:31.301Z,1020.63
2022-10-09T08:42:31.270Z,1020.39
2022-10-09T08:43:31.239Z,1020.38
2022-10-09T08:44:31.241Z,1020.44
2022-10-09T08:45:31.180Z,1020.69
2022-10-09T08:46:31.172Z,1020.33
2022-10-09T08:47:31.118Z,1020.67
2022-10-09T08:48:31.075Z,1020.67
2022-10-09T08:49:31.106Z,1020.33
2022-10-09T08:50:31.032Z,1020.36
2022-10-09T08:51:31.010Z,1020.31
2022-10-09T08:52:30.935Z,1020.54
2022-10-09T08:53:30.911Z,1020.27
2022-10-09T08:54:30.964Z,1020.27
2022-10-09T08:55:39.911Z,1020.52
2022-10-09T08:56:30.799Z,1020.25
2022-10-09T08:57:30.775Z,1020.59
2022-10-09T08:58:30.736Z,1020.55
2022-10-09T08:59:30.719Z,1020.54
2022-10-09T09:00:30.670Z,1020.52
2022-10-09T09:01:30.730Z,1020.47
2022-10-09T09:02:30.675Z,1020.12
2022-10-09T09:03:30.573Z,1020.40
2022-10-09T09:04:30.537Z,1020.38
2022-10-09T09:05:30.508Z,1020.35
2022-10-09T09:06:30.475Z,1020.32
2022-10-09T09:07:30.459Z,1020.09
2022-10-09T09:08:30.407Z,1020.00
2022-10-09T09:09:30.377Z,1020.25
2022-10-09T09:10:30.344Z,1019.88
2022-10-09T09:11:30.310Z,1019.87
2022-10-09T09:12:30.458Z,1019.75
2022-10-09T09:13:30.254Z,1019.90
2022-10-09T09:14:30.208Z,1019.72
2022-10-09T09:15:30.182Z,1019.69
2022-10-09T09:16:30.183Z,1019.67
2022-10-09T09:17:30.112Z,1020.05
2022-10-09T09:18:30.091Z,1019.66
2022-10-09T09:19:30.044Z,1019.71
2022-10-09T09:20:30.030Z,1019.69
2022-10-09T09:21:29.991Z,1019.76
2022-10-09T09:22:29.951Z,1020.05
2022-10-09T09:23:29.929Z,1019.69
2022-10-09T09:24:29.897Z,1019.66
2022-10-09T09:25:29.848Z,1019.67
2022-10-09T09:26:29.900Z,1019.66
2022-10-09T09:27:29.782Z,1019.66
2022-10-09T09:28:29.791Z,1019.61
2022-10-09T09:29:29.760Z,1019.64
2022-10-09T09:30:29.701Z,1019.95
2022-10-09T09:31:29.872Z,1019.57
2022-10-09T09:32:29.616Z,1019.52
2022-10-09T09:33:33.747Z,1019.90
2022-10-09T09:34:29.553Z,1019.59
2022-10-09T09:35:29.520Z,1019.54
2022-10-09T09:36:29.502Z,1019.51
2022-10-09T09:37:29.454Z,1019.81
2022-10-09T09:38:29.419Z,1019.56
2022-10-09T09:40:31.270Z,1019.52
2022-10-09T09:40:38.094Z,1019.47
2022-10-09T09:41:29.337Z,1019.47
2022-10-09T09:42:29.400Z,1019.78
2022-10-09T09:43:29.255Z,1019.48
2022-10-09T09:44:29.223Z,1019.46
2022-10-09T09:45:29.193Z,1019.43
2022-10-09T09:46:29.465Z,1019.43
2022-10-09T09:47:29.165Z,1019.76
2022-10-09T09:48:29.091Z,1019.39
2022-10-09T09:49:29.057Z,1019.39
2022-10-09T09:50:47.055Z,1019.42
2022-10-09T09:51:29.706Z,1019.72
2022-10-09T09:52:28.990Z,1019.37
2022-10-09T09:53:29.955Z,1019.39
2022-10-09T09:54:28.952Z,1019.69
2022-10-09T09:55:28.858Z,1019.27
2022-10-09T09:56:28.910Z,1019.65
2022-10-09T09:57:28.796Z,1019.30
2022-10-09T09:58:28.771Z,1019.60
2022-10-09T09:59:28.751Z,1019.23
2022-10-09T10:00:28.765Z,1019.25
2022-10-09T10:01:28.662Z,1019.15
2022-10-09T10:02:28.690Z,1019.17
2022-10-09T10:03:29.865Z,1019.15
2022-10-09T10:04:28.577Z,1019.14
2022-10-09T10:05:28.533Z,1019.48
2022-10-09T10:06:28.495Z,1019.13
2022-10-09T10:07:28.460Z,1019.17
2022-10-09T10:08:28.427Z,1019.18
2022-10-09T10:09:28.401Z,1019.14
2022-10-09T10:10:28.395Z,1019.14
2022-10-09T10:11:28.332Z,1019.18
2022-10-09T10:12:28.313Z,1019.14
2022-10-09T10:13:28.262Z,1019.45
2022-10-09T10:14:28.231Z,1019.45
2022-10-09T10:15:28.195Z,1019.10
2022-10-09T10:16:28.216Z,1019.45
2022-10-09T10:17:28.131Z,1019.08
2022-10-09T10:18:28.108Z,1019.41
2022-10-09T10:19:28.061Z,1019.37
2022-10-09T10:20:28.040Z,1019.05
2022-10-09T10:21:28.026Z,1019.08
2022-10-09T10:22:27.969Z,1019.41
2022-10-09T10:23:27.971Z,1019.01
2022-10-09T10:24:27.896Z,1019.07
2022-10-09T10:25:27.865Z,1019.05
2022-10-09T10:26:27.850Z,1018.96
2022-10-09T10:27:27.799Z,1019.05
2022-10-09T10:28:27.835Z,1019.33
2022-10-09T10:29:27.730Z,1019.04
2022-10-09T10:30:27.775Z,1019.28
2022-10-09T10:31:27.690Z,1018.95
2022-10-09T10:32:27.632Z,1018.94
2022-10-09T10:33:27.598Z,1018.86
2022-10-09T10:34:27.579Z,1019.07
2022-10-09T10:35:27.530Z,1018.89
2022-10-09T10:36:27.501Z,1019.19
2022-10-09T10:37:27.505Z,1019.00
2022-10-09T10:38:27.445Z,1018.88
2022-10-09T10:39:27.415Z,1019.18
2022-10-09T10:40:27.366Z,1018.83
2022-10-09T10:41:27.333Z,1018.81
2022-10-09T10:42:27.302Z,1018.81
2022-10-09T10:43:27.266Z,1018.77
2022-10-09T10:44:27.237Z,1018.77
2022-10-09T10:45:27.208Z,1018.76
2022-10-09T10:46:27.205Z,1018.75
2022-10-09T10:47:27.133Z,1018.76
2022-10-09T10:48:27.105Z,1018.70
2022-10-09T10:49:31.643Z,1018.90
2022-10-09T10:50:27.036Z,1018.63
2022-10-09T10:51:27.013Z,1018.83
2022-10-09T10:52:26.977Z,1018.65
2022-10-09T10:53:26.934Z,1018.92
2022-10-09T10:54:26.903Z,1018.64
2022-10-09T10:55:26.868Z,1018.62
2022-10-09T10:56:26.834Z,1018.62
2022-10-09T10:57:26.815Z,1018.77
2022-10-09T10:58:26.780Z,1018.86
2022-10-09T10:59:26.736Z,1018.59
2022-10-09T11:00:26.707Z,1018.75
2022-10-09T11:01:26.706Z,1018.81
2022-10-09T11:02:26.643Z,1018.48
2022-10-09T11:03:26.695Z,1018.55
2022-10-09T11:04:26.573Z,1018.51
2022-10-09T11:05:26.537Z,1018.51
2022-10-09T11:06:26.505Z,1018.84
2022-10-09T11:07:26.475Z,1018.87
2022-10-09T11:08:26.459Z,1018.49
2022-10-09T11:09:26.404Z,1018.42
2022-10-09T11:10:26.370Z,1018.44
2022-10-09T11:11:26.341Z,1018.46
2022-10-09T11:12:46.649Z,1018.39
2022-10-09T11:13:26.273Z,1018.35
2022-10-09T11:14:26.258Z,1018.36
2022-10-09T11:15:26.208Z,1018.30
2022-10-09T11:16:26.193Z,1018.29
2022-10-09T11:17:26.147Z,1018.31
2022-10-09T11:18:26.107Z,1018.37
2022-10-09T11:19:26.079Z,1018.21
2022-10-09T11:20:26.056Z,1018.24
2022-10-09T11:21:26.008Z,1018.21
2022-10-09T11:22:25.981Z,1018.55
2022-10-09T11:23:25.941Z,1018.25
2022-10-09T11:24:25.909Z,1018.19
2022-10-09T11:25:25.875Z,1018.17
2022-10-09T11:26:25.858Z,1018.53
2022-10-09T11:27:25.809Z,1018.21
2022-10-09T11:28:25.849Z,1018.16
2022-10-09T11:29:25.743Z,1018.18
2022-10-09T11:30:25.721Z,1018.45
2022-10-09T11:31:25.716Z,1018.01
2022-10-09T11:32:25.647Z,1017.99
2022-10-09T11:33:25.608Z,1018.18
2022-10-09T11:34:25.578Z,1018.19
2022-10-09T11:35:25.543Z,1018.16
2022-10-09T11:36:25.533Z,1017.69
2022-10-09T11:37:25.477Z,1017.77
2022-10-09T11:38:25.447Z,1017.71
2022-10-09T11:39:25.410Z,1017.77
2022-10-09T11:40:25.378Z,1017.75
2022-10-09T11:41:25.348Z,1018.07
2022-10-09T11:42:25.326Z,1018.10
2022-10-09T11:43:25.288Z,1017.66
2022-10-09T11:44:25.270Z,1018.00
2022-10-09T11:45:25.376Z,1017.67
2022-10-09T11:46:25.181Z,1017.64
2022-10-09T11:47:25.144Z,1017.64
2022-10-09T11:48:25.113Z,1017.70
2022-10-09T11:49:25.094Z,1017.66
2022-10-09T11:50:25.051Z,1017.61
2022-10-09T11:51:25.013Z,1017.91
2022-10-09T11:52:24.983Z,1017.63
2022-10-09T11:53:24.948Z,1017.58
2022-10-09T11:54:24.916Z,1017.53
2022-10-09T11:55:24.906Z,1017.90
2022-10-09T11:56:24.848Z,1017.85
2022-10-09T11:57:24.814Z,1017.49
2022-10-09T11:58:24.783Z,1017.79
2022-10-09T11:59:24.747Z,1017.40
2022-10-09T12:00:24.716Z,1017.76
2022-10-09T12:01:24.763Z,1017.44
2022-10-09T12:02:24.692Z,1017.47
2022-10-09T12:03:24.627Z,1017.47
2022-10-09T12:04:43.502Z,1017.35
2022-10-09T12:05:24.554Z,1017.69